createdAt,value
2023-03-04T00:01:14.351Z,1.61
2023-03-04T00:06:15.841Z,1.61
2023-03-04T00:11:17.246Z,1.65
2023-03-04T00:16:18.700Z,1.66
2023-03-04T00:21:20.446Z,1.70
2023-03-04T00:26:22.034Z,1.71
2023-03-04T00:31:24.240Z,1.71
2023-03-04T00:36:26.289Z,1.72
2023-03-04T00:41:30.379Z,1.72
2023-03-04T00:46:31.828Z,1.75
2023-03-04T00:51:34.163Z,1.78
2023-03-04T00:56:35.625Z,1.81
2023-03-04T01:01:37.091Z,1.83
2023-03-04T01:06:38.510Z,1.79
2023-03-04T01:11:40.282Z,1.77
2023-03-04T01:16:41.850Z,1.75
2023-03-04T01:21:43.463Z,1.78
2023-03-04T01:26:44.886Z,1.76
2023-03-04T01:31:46.475Z,1.71
2023-03-04T01:36:47.883Z,1.68
2023-03-04T01:41:49.514Z,1.68
2023-03-04T01:46:54.360Z,1.70
2023-03-04T01:51:55.864Z,1.68
2023-03-04T01:57:00.059Z,1.67
2023-03-04T02:02:02.112Z,1.67
2023-03-04T02:07:05.556Z,1.65
2023-03-04T02:12:06.996Z,1.65
2023-03-04T02:17:12.658Z,1.63
2023-03-04T02:22:14.113Z,1.60
2023-03-04T02:27:15.696Z,1.59
2023-03-04T02:32:17.410Z,1.58
2023-03-04T02:37:20.075Z,1.59
2023-03-04T02:42:24.324Z,1.59
2023-03-04T02:47:25.788Z,1.58
2023-03-04T02:52:29.530Z,1.62
2023-03-04T02:57:32.491Z,1.65
2023-03-04T03:02:34.036Z,1.63
2023-03-04T03:07:35.545Z,1.61
2023-03-04T03:12:37.162Z,1.59
2023-03-04T03:17:39.718Z,1.51
2023-03-04T03:22:41.952Z,1.53
2023-03-04T03:27:44.426Z,1.55
2023-03-04T03:32:47.289Z,1.54
2023-03-04T03:37:49.098Z,1.52
2023-03-04T03:42:50.492Z,1.49
2023-03-04T03:47:51.945Z,1.47
2023-03-04T03:52:53.400Z,1.48
2023-03-04T03:57:54.833Z,1.48
2023-03-04T04:02:58.489Z,1.47
2023-03-04T04:07:59.948Z,1.50
2023-03-04T04:13:01.360Z,1.51
2023-03-04T04:18:02.795Z,1.55
2023-03-04T04:23:04.376Z,1.59
2023-03-04T04:28:06.055Z,1.59
2023-03-04T04:33:07.481Z,1.60
2023-03-04T04:38:10.028Z,1.60
2023-03-04T04:43:11.477Z,1.63
2023-03-04T04:48:12.875Z,1.61
2023-03-04T04:53:14.327Z,1.63
2023-03-04T04:58:15.924Z,1.63
2023-03-04T05:03:18.753Z,1.61
2023-03-04T05:08:20.330Z,1.62
2023-03-04T05:13:22.267Z,1.59
2023-03-04T05:18:25.779Z,1.58
2023-03-04T05:23:30.468Z,1.58
2023-03-04T05:28:33.096Z,1.59
2023-03-04T05:33:35.094Z,1.60
2023-03-04T05:38:36.688Z,1.68
2023-03-04T05:43:42.549Z,1.72
2023-03-04T05:48:44.834Z,1.76
2023-03-04T05:53:46.361Z,1.84
2023-03-04T05:58:48.085Z,1.93
2023-03-04T06:03:49.652Z,1.97
2023-03-04T06:08:51.554Z,1.98
2023-03-04T06:13:53.039Z,1.96
2023-03-04T06:18:54.463Z,1.95
2023-03-04T06:23:55.914Z,1.99
2023-03-04T06:28:57.448Z,2.01
2023-03-04T06:33:58.894Z,2.10
2023-03-04T06:39:03.780Z,2.19
2023-03-04T06:44:05.999Z,2.19
2023-03-04T06:49:07.398Z,2.20
2023-03-04T06:54:09.678Z,2.20
2023-03-04T06:59:11.199Z,2.24
2023-03-04T07:04:14.574Z,2.26
2023-03-04T07:09:16.047Z,2.24
2023-03-04T07:14:17.501Z,2.22
2023-03-04T07:19:18.942Z,2.24
2023-03-04T07:24:20.467Z,2.26
2023-03-04T07:29:21.928Z,2.29
2023-03-04T07:34:23.422Z,2.33
2023-03-04T07:39:25.023Z,2.34
2023-03-04T07:44:26.492Z,2.33
2023-03-04T07:49:27.902Z,2.37
2023-03-04T07:54:29.296Z,2.41
2023-03-04T07:59:30.879Z,2.45
2023-03-04T08:04:32.404Z,2.49
2023-03-04T08:09:34.133Z,2.50
2023-03-04T08:14:35.690Z,2.58
2023-03-04T08:19:38.272Z,2.66
2023-03-04T08:24:39.711Z,2.70
2023-03-04T08:29:41.160Z,2.69
2023-03-04T08:34:42.641Z,2.72
2023-03-04T08:39:46.748Z,2.76
2023-03-04T08:44:48.355Z,2.87
2023-03-04T08:49:49.932Z,3.01
2023-03-04T08:54:51.523Z,3.07
2023-03-04T08:59:53.202Z,3.05
2023-03-04T09:04:54.698Z,3.12
2023-03-04T09:09:56.308Z,3.16
2023-03-04T09:15:10.288Z,3.12
2023-03-04T09:20:13.566Z,3.18
2023-03-04T09:25:15.451Z,3.20
2023-03-04T09:35:54.201Z,3.21
2023-03-04T09:40:56.809Z,3.27
2023-03-04T09:46:04.615Z,3.32
2023-03-04T09:51:36.418Z,3.45
2023-03-04T09:56:40.822Z,3.45
2023-03-04T10:01:46.482Z,3.52
2023-03-04T10:06:54.342Z,3.60
2023-03-04T10:51:41.726Z,2.15
2023-03-04T10:56:56.586Z,3.05
2023-03-04T11:02:13.747Z,3.44
2023-03-04T11:07:15.674Z,3.59
2023-03-04T11:12:20.708Z,3.67
2023-03-04T11:17:43.069Z,3.76
2023-03-04T11:22:46.165Z,3.76
2023-03-04T11:27:52.293Z,3.83
2023-03-04T11:32:59.179Z,3.93
2023-03-04T11:38:20.404Z,3.95
2023-03-04T11:43:38.068Z,4.00
2023-03-04T11:49:07.217Z,3.97
2023-03-04T11:54:23.876Z,3.97
2023-03-04T11:59:44.074Z,4.02
2023-03-04T12:04:45.504Z,4.01
2023-03-04T12:09:56.426Z,4.07
2023-03-04T12:15:16.630Z,4.14
2023-03-04T12:20:37.706Z,4.22
2023-03-04T12:25:50.193Z,4.25
2023-03-04T12:31:10.698Z,4.39
2023-03-04T12:36:25.731Z,4.44
2023-03-04T12:41:32.640Z,4.46
2023-03-04T12:47:06.882Z,4.58
2023-03-04T12:52:26.959Z,4.71
2023-03-04T12:57:31.752Z,4.81
2023-03-04T13:03:15.766Z,4.70
2023-03-04T13:08:25.149Z,4.66
2023-03-04T13:13:40.224Z,4.62
2023-03-04T13:18:41.680Z,4.72
2023-03-04T13:23:43.240Z,4.78
2023-03-04T13:28:45.181Z,4.82
2023-03-04T13:33:49.275Z,4.86
2023-03-04T13:39:17.203Z,4.92
2023-03-04T13:44:33.943Z,4.99
2023-03-04T13:49:35.469Z,5.02
2023-03-04T13:54:36.974Z,5.00
2023-03-04T13:59:42.024Z,4.96
2023-03-04T14:04:45.750Z,4.92
2023-03-04T14:09:54.937Z,4.91
2023-03-04T14:14:59.515Z,5.03
2023-03-04T14:20:01.025Z,5.07
2023-03-04T14:25:14.419Z,5.04
2023-03-04T14:30:39.157Z,5.03
2023-03-04T14:35:49.648Z,5.05
2023-03-04T14:41:20.219Z,5.12
2023-03-04T14:46:24.484Z,5.13
2023-03-04T14:51:48.879Z,5.14
2023-03-04T14:56:50.438Z,5.10
2023-03-04T15:01:51.947Z,4.96
2023-03-04T15:06:53.657Z,4.77
2023-03-04T15:12:03.583Z,4.68
2023-03-04T15:17:05.189Z,4.59
2023-03-04T15:22:08.030Z,4.60
2023-03-04T15:27:12.547Z,4.64
2023-03-04T15:32:14.123Z,4.68
2023-03-04T15:37:20.798Z,4.73
2023-03-04T15:42:22.871Z,4.71
2023-03-04T15:47:25.561Z,4.69
2023-03-04T15:52:27.083Z,4.65
2023-03-04T15:57:29.093Z,4.66
2023-03-04T16:02:30.596Z,4.68
2023-03-04T16:07:32.073Z,4.67
2023-03-04T16:12:33.708Z,4.64
2023-03-04T16:17:35.191Z,4.61
2023-03-04T16:22:37.149Z,4.56
2023-03-04T16:27:39.364Z,4.46
2023-03-04T16:32:41.026Z,4.34
2023-03-04T16:37:43.048Z,4.30
2023-03-04T16:42:44.555Z,4.31
2023-03-04T16:47:46.402Z,4.06
2023-03-04T16:52:49.070Z,3.73
2023-03-04T16:57:52.070Z,3.57
2023-03-04T17:02:59.451Z,3.47
2023-03-04T17:08:00.972Z,3.45
2023-03-04T17:13:02.422Z,3.42
2023-03-04T17:18:04.138Z,3.43
2023-03-04T17:23:05.636Z,3.44
2023-03-04T17:28:07.158Z,3.42
2023-03-04T17:33:08.562Z,3.42
2023-03-04T17:38:10.155Z,3.42
2023-03-04T17:43:11.596Z,3.42
2023-03-04T17:48:15.142Z,3.40
2023-03-04T17:53:17.006Z,3.39
2023-03-04T17:58:19.292Z,3.41
2023-03-04T18:03:20.739Z,3.40
2023-03-04T18:08:24.005Z,3.41
2023-03-04T18:13:25.651Z,3.40
2023-03-04T18:18:27.081Z,3.40
2023-03-04T18:23:28.821Z,3.42
2023-03-04T18:28:30.942Z,3.43
2023-03-04T18:33:33.104Z,3.44
2023-03-04T18:38:34.849Z,3.41
2023-03-04T18:43:36.636Z,3.38
2023-03-04T18:48:43.355Z,3.39
2023-03-04T18:53:44.785Z,3.37
2023-03-04T18:58:49.314Z,3.38
2023-03-04T19:03:51.519Z,3.38
2023-03-04T19:08:55.170Z,3.40
2023-03-04T19:13:56.709Z,3.39
2023-03-04T19:18:58.134Z,3.36
2023-03-04T19:23:59.544Z,3.37
2023-03-04T19:29:01.073Z,3.37
2023-03-04T19:34:02.753Z,3.39
2023-03-04T19:39:04.491Z,3.39
2023-03-04T19:44:05.910Z,3.35
2023-03-04T19:49:07.366Z,3.28
2023-03-04T19:54:10.381Z,3.17
2023-03-04T19:59:11.817Z,3.10
2023-03-04T20:04:17.023Z,3.06
2023-03-04T20:09:21.390Z,2.98
2023-03-04T20:14:23.051Z,2.94
2023-03-04T20:19:24.529Z,2.96
2023-03-04T20:24:27.463Z,2.91
2023-03-04T20:29:30.001Z,2.85
2023-03-04T20:34:31.713Z,2.83
2023-03-04T20:39:33.724Z,2.82
2023-03-04T20:44:35.958Z,2.82
2023-03-04T20:49:37.532Z,2.80
2023-03-04T20:54:40.030Z,2.85
2023-03-04T20:59:41.933Z,2.91
2023-03-04T21:04:43.981Z,2.92
2023-03-04T21:09:45.755Z,2.89
2023-03-04T21:14:47.182Z,2.87
2023-03-04T21:19:48.627Z,2.86
2023-03-04T21:24:50.110Z,2.84
2023-03-04T21:29:52.713Z,2.83
2023-03-04T21:34:55.733Z,2.84
2023-03-04T21:39:58.067Z,2.84
2023-03-04T21:44:59.592Z,2.81
2023-03-04T21:50:01.166Z,2.78
2023-03-04T21:55:02.637Z,2.75
2023-03-04T22:00:06.526Z,2.75
2023-03-04T22:05:13.262Z,2.75
2023-03-04T22:10:14.744Z,2.76
2023-03-04T22:15:16.293Z,2.74
2023-03-04T22:20:17.750Z,2.72
2023-03-04T22:25:19.191Z,2.74
2023-03-04T22:30:20.935Z,2.80
2023-03-04T22:35:22.396Z,2.80
2023-03-04T22:40:24.010Z,2.81
2023-03-04T22:45:28.045Z,2.81
2023-03-04T22:50:29.577Z,2.78
2023-03-04T22:55:31.018Z,2.73
2023-03-04T23:00:32.506Z,2.69
2023-03-04T23:05:34.060Z,2.67
2023-03-04T23:10:35.507Z,2.64
2023-03-04T23:15:36.932Z,2.61
2023-03-04T23:20:42.074Z,2.61
2023-03-04T23:25:46.073Z,2.56
2023-03-04T23:30:47.620Z,2.50
2023-03-04T23:35:49.162Z,2.46
2023-03-04T23:40:50.696Z,2.44
2023-03-04T23:45:52.149Z,2.49
2023-03-04T23:50:54.128Z,2.48
2023-03-04T23:55:55.833Z,2.45
